createdAt,value
2022-10-05T00:01:25.516Z,10.50
2022-10-05T00:03:50.535Z,10.50
2022-10-05T00:06:14.035Z,10.50
2022-10-05T00:08:37.705Z,10.50
2022-10-05T00:11:01.634Z,10.50
2022-10-05T00:13:28.367Z,10.50
2022-10-05T00:15:54.364Z,10.50
2022-10-05T00:18:20.578Z,10.50
2022-10-05T00:20:46.850Z,10.50
2022-10-05T00:23:19.307Z,10.50
2022-10-05T00:25:42.605Z,10.50
2022-10-05T00:28:17.503Z,10.50
2022-10-05T00:30:41.977Z,10.60
2022-10-05T00:33:05.285Z,10.60
2022-10-05T00:35:30.783Z,10.60
2022-10-05T00:37:56.907Z,10.70
2022-10-05T00:40:34.145Z,10.70
2022-10-05T00:43:14.131Z,10.70
2022-10-05T00:45:43.867Z,10.70
2022-10-05T00:48:19.368Z,10.70
2022-10-05T00:51:07.755Z,10.70
2022-10-05T00:53:43.593Z,10.60
2022-10-05T00:56:17.148Z,10.60
2022-10-05T00:58:54.821Z,10.60
2022-10-05T01:01:22.780Z,10.60
2022-10-05T01:03:58.636Z,10.50
2022-10-05T01:06:30.819Z,10.50
2022-10-05T01:09:08.116Z,10.50
2022-10-05T01:11:40.196Z,10.50
2022-10-05T01:14:14.132Z,10.50
2022-10-05T01:16:48.175Z,10.60
2022-10-05T01:19:30.553Z,10.60
2022-10-05T01:21:58.665Z,10.60
2022-10-05T01:24:48.669Z,10.50
2022-10-05T01:27:38.880Z,10.60
2022-10-05T01:30:06.618Z,10.50
2022-10-05T01:32:35.639Z,10.70
2022-10-05T01:35:10.878Z,10.60
2022-10-05T01:37:48.564Z,10.70
2022-10-05T01:40:24.292Z,10.70
2022-10-05T01:43:03.332Z,10.70
2022-10-05T01:45:35.409Z,10.70
2022-10-05T01:48:09.521Z,10.80
2022-10-05T01:50:48.913Z,10.80
2022-10-05T01:53:26.002Z,10.70
2022-10-05T01:55:56.143Z,10.70
2022-10-05T01:58:30.576Z,10.80
2022-10-05T02:01:01.909Z,10.70
2022-10-05T02:03:30.759Z,10.70
2022-10-05T02:05:59.338Z,10.70
2022-10-05T02:08:28.804Z,10.70
2022-10-05T02:10:59.654Z,10.80
2022-10-05T02:13:33.781Z,10.80
2022-10-05T02:16:03.233Z,10.80
2022-10-05T02:18:35.220Z,11.00
2022-10-05T02:21:02.963Z,11.00
2022-10-05T02:23:32.111Z,11.10
2022-10-05T02:25:57.400Z,11.10
2022-10-05T02:28:29.281Z,11.30
2022-10-05T02:31:00.109Z,11.30
2022-10-05T02:33:29.750Z,11.30
2022-10-05T02:35:57.594Z,11.40
2022-10-05T02:38:29.401Z,11.40
2022-10-05T02:41:00.556Z,11.40
2022-10-05T02:43:38.931Z,11.40
2022-10-05T02:46:14.585Z,11.40
2022-10-05T02:48:47.206Z,11.50
2022-10-05T02:51:20.663Z,11.50
2022-10-05T02:53:58.407Z,11.50
2022-10-05T02:56:28.307Z,11.50
2022-10-05T02:59:03.147Z,11.50
2022-10-05T03:01:33.875Z,11.60
2022-10-05T03:04:12.657Z,11.60
2022-10-05T03:06:47.405Z,11.60
2022-10-05T03:09:11.638Z,11.60
2022-10-05T03:11:44.577Z,11.70
2022-10-05T03:14:15.695Z,11.70
2022-10-05T03:16:51.959Z,11.70
2022-10-05T03:19:37.106Z,11.80
2022-10-05T03:22:09.148Z,11.80
2022-10-05T03:24:55.082Z,11.90
2022-10-05T03:27:34.203Z,11.80
2022-10-05T03:30:05.640Z,11.90
2022-10-05T03:32:44.608Z,11.90
2022-10-05T03:35:13.382Z,11.90
2022-10-05T03:37:49.444Z,12.00
2022-10-05T03:40:27.392Z,12.00
2022-10-05T03:43:04.343Z,12.00
2022-10-05T03:45:38.044Z,12.00
2022-10-05T03:48:09.371Z,12.10
2022-10-05T03:50:46.999Z,12.10
2022-10-05T03:53:18.662Z,12.10
2022-10-05T03:55:48.335Z,12.20
2022-10-05T03:58:17.255Z,12.20
2022-10-05T04:00:47.144Z,12.20
2022-10-05T04:03:17.284Z,12.20
2022-10-05T04:05:48.134Z,12.20
2022-10-05T04:08:22.213Z,12.30
2022-10-05T04:10:50.746Z,12.20
2022-10-05T04:13:27.166Z,12.30
2022-10-05T04:16:01.126Z,12.30
2022-10-05T04:18:31.014Z,12.40
2022-10-05T04:21:00.101Z,12.30
2022-10-05T04:23:37.034Z,12.30
2022-10-05T04:26:06.139Z,12.30
2022-10-05T04:28:47.992Z,12.30
2022-10-05T04:31:22.881Z,12.30
2022-10-05T04:33:55.750Z,12.30
2022-10-05T04:36:25.756Z,12.30
2022-10-05T04:39:05.969Z,12.30
2022-10-05T04:42:02.822Z,12.30
2022-10-05T04:45:05.561Z,12.30
2022-10-05T04:47:56.974Z,12.30
2022-10-05T04:50:36.411Z,12.30
2022-10-05T04:53:18.595Z,12.40
2022-10-05T04:55:54.356Z,12.40
2022-10-05T04:58:41.407Z,12.40
2022-10-05T05:01:24.950Z,12.40
2022-10-05T05:04:16.246Z,12.40
2022-10-05T05:06:48.677Z,12.40
2022-10-05T05:09:29.044Z,12.50
2022-10-05T05:12:13.975Z,12.50
2022-10-05T05:15:01.892Z,12.50
2022-10-05T05:17:49.205Z,12.50
2022-10-05T05:20:24.181Z,12.50
2022-10-05T05:22:54.392Z,12.50
2022-10-05T05:25:32.176Z,12.50
2022-10-05T05:27:59.066Z,12.60
2022-10-05T05:30:26.167Z,12.60
2022-10-05T05:33:27.348Z,12.70
2022-10-05T05:36:28.467Z,12.60
2022-10-05T05:39:21.197Z,12.50
2022-10-05T05:41:57.378Z,12.50
2022-10-05T05:44:26.531Z,12.50
2022-10-05T05:47:05.127Z,12.60
2022-10-05T05:49:52.322Z,12.60
2022-10-05T05:52:23.677Z,12.70
2022-10-05T05:54:54.431Z,12.70
2022-10-05T05:57:22.995Z,12.60
2022-10-05T06:00:05.458Z,12.60
2022-10-05T06:02:42.795Z,12.70
2022-10-05T06:05:28.791Z,12.70
2022-10-05T06:07:57.276Z,12.70
2022-10-05T06:10:30.882Z,12.80
2022-10-05T06:13:06.689Z,12.80
2022-10-05T06:15:37.010Z,12.80
2022-10-05T06:18:06.978Z,12.80
2022-10-05T06:20:42.454Z,12.80
2022-10-05T06:23:18.418Z,12.80
2022-10-05T06:25:58.379Z,12.80
2022-10-05T06:28:21.828Z,12.90
2022-10-05T06:31:02.865Z,12.90
2022-10-05T06:33:47.178Z,12.90
2022-10-05T06:36:24.716Z,12.90
2022-10-05T06:39:31.780Z,12.90
2022-10-05T06:42:21.344Z,13.00
2022-10-05T06:45:20.628Z,13.00
2022-10-05T06:48:05.847Z,13.00
2022-10-05T06:50:43.809Z,13.00
2022-10-05T06:53:34.053Z,13.00
2022-10-05T06:56:09.306Z,13.10
2022-10-05T06:58:56.760Z,13.10
2022-10-05T07:01:38.762Z,13.10
2022-10-05T07:04:22.580Z,13.10
2022-10-05T07:06:51.919Z,13.10
2022-10-05T07:09:36.439Z,13.20
2022-10-05T07:12:28.737Z,13.20
2022-10-05T07:15:20.722Z,13.20
2022-10-05T07:17:57.743Z,13.20
2022-10-05T07:20:30.480Z,13.20
2022-10-05T07:23:24.246Z,13.20
2022-10-05T07:25:52.332Z,13.20
2022-10-05T07:28:29.392Z,13.30
2022-10-05T07:30:58.314Z,13.30
2022-10-05T07:33:31.424Z,13.30
2022-10-05T07:36:21.919Z,13.40
2022-10-05T07:38:54.339Z,13.40
2022-10-05T07:41:25.108Z,13.50
2022-10-05T07:44:02.618Z,13.50
2022-10-05T07:46:46.550Z,13.60
2022-10-05T07:49:20.957Z,13.70
2022-10-05T07:51:47.761Z,13.70
2022-10-05T07:54:21.716Z,13.60
2022-10-05T07:56:50.497Z,13.70
2022-10-05T07:59:27.639Z,13.80
2022-10-05T08:02:03.798Z,13.70
2022-10-05T08:04:36.034Z,13.80
2022-10-05T08:07:07.523Z,13.80
2022-10-05T08:09:38.617Z,14.00
2022-10-05T08:12:20.747Z,14.00
2022-10-05T08:14:54.572Z,14.00
2022-10-05T08:17:30.130Z,14.00
2022-10-05T08:20:04.785Z,14.10
2022-10-05T08:22:33.515Z,14.10
2022-10-05T08:25:03.281Z,14.10
2022-10-05T08:27:35.299Z,14.10
2022-10-05T08:30:03.229Z,14.20
2022-10-05T08:32:30.452Z,14.20
2022-10-05T08:35:00.262Z,14.20
2022-10-05T08:37:28.375Z,14.30
2022-10-05T08:39:57.874Z,14.40
2022-10-05T08:42:51.408Z,14.40
2022-10-05T08:45:52.380Z,14.40
2022-10-05T08:49:18.806Z,14.50
2022-10-05T08:52:25.085Z,14.50
2022-10-05T08:55:27.114Z,14.50
2022-10-05T08:58:38.537Z,14.60
2022-10-05T09:01:12.322Z,14.70
2022-10-05T09:04:18.003Z,14.80
2022-10-05T09:07:09.788Z,14.90
2022-10-05T09:09:51.072Z,15.00
2022-10-05T09:12:44.559Z,15.00
2022-10-05T09:15:35.957Z,15.10
2022-10-05T09:18:52.784Z,15.10
2022-10-05T09:21:37.080Z,15.20
2022-10-05T09:24:36.670Z,15.30
2022-10-05T09:27:09.004Z,15.40
2022-10-05T09:30:06.236Z,15.50
2022-10-05T09:33:14.589Z,15.60
2022-10-05T09:36:37.205Z,15.60
2022-10-05T09:39:35.009Z,15.70
2022-10-05T09:42:31.689Z,15.80
2022-10-05T09:45:29.589Z,15.90
2022-10-05T09:48:43.107Z,16.00
2022-10-05T09:55:01.346Z,16.10
2022-10-05T09:58:15.103Z,16.10
2022-10-05T10:01:29.230Z,16.20
2022-10-05T10:04:29.686Z,16.30
2022-10-05T10:07:30.251Z,16.40
2022-10-05T10:10:31.824Z,16.60
2022-10-05T10:13:21.664Z,16.60
2022-10-05T10:16:14.404Z,16.80
2022-10-05T10:19:13.550Z,17.00
2022-10-05T10:22:11.919Z,17.00
2022-10-05T10:24:55.803Z,17.00
2022-10-05T10:27:39.682Z,17.00
2022-10-05T10:30:36.595Z,17.10
2022-10-05T10:33:47.376Z,17.20
2022-10-05T10:36:18.276Z,17.30
2022-10-05T10:38:54.422Z,17.20
2022-10-05T10:42:11.498Z,17.30
2022-10-05T10:45:34.696Z,17.30
2022-10-05T10:48:04.965Z,17.40
2022-10-05T10:51:05.353Z,17.40
2022-10-05T10:54:14.989Z,17.50
2022-10-05T10:57:00.476Z,17.50
2022-10-05T11:00:20.273Z,17.60
2022-10-05T11:03:28.355Z,17.70
2022-10-05T11:06:13.781Z,17.90
2022-10-05T11:09:09.660Z,17.90
2022-10-05T11:12:15.153Z,18.00
2022-10-05T11:15:33.546Z,18.10
2022-10-05T11:18:16.667Z,18.20
2022-10-05T11:21:36.638Z,18.30
2022-10-05T11:24:48.514Z,18.30
2022-10-05T11:30:37.212Z,18.50
2022-10-05T11:33:59.225Z,18.60
2022-10-05T11:36:53.641Z,18.60
2022-10-05T11:39:45.022Z,18.80
2022-10-05T11:42:57.270Z,19.10
2022-10-05T11:45:36.184Z,19.30
2022-10-05T11:48:43.482Z,19.40
2022-10-05T11:51:34.149Z,19.40
2022-10-05T11:54:17.526Z,19.50
2022-10-05T11:56:50.710Z,19.50
2022-10-05T11:59:23.184Z,19.50
2022-10-05T12:01:55.845Z,19.50
2022-10-05T12:04:33.239Z,19.50
2022-10-05T12:07:11.128Z,19.80
2022-10-05T12:10:11.456Z,20.00
2022-10-05T12:12:44.199Z,20.10
2022-10-05T12:15:20.153Z,20.00
2022-10-05T12:17:53.343Z,20.00
2022-10-05T12:20:24.755Z,20.00
2022-10-05T12:22:52.745Z,20.00
2022-10-05T12:25:28.671Z,20.20
2022-10-05T12:27:56.200Z,20.20
2022-10-05T12:30:28.291Z,20.30
2022-10-05T12:33:03.434Z,20.40
2022-10-05T12:35:48.294Z,20.40
2022-10-05T12:38:22.987Z,20.40
2022-10-05T12:40:51.826Z,20.60
2022-10-05T12:43:25.673Z,20.50
2022-10-05T12:46:10.669Z,20.50
2022-10-05T12:48:56.114Z,20.50
2022-10-05T12:51:33.123Z,20.50
2022-10-05T12:54:02.515Z,20.50
2022-10-05T12:56:40.344Z,20.60
2022-10-05T12:59:14.784Z,20.60
2022-10-05T13:01:44.644Z,20.60
2022-10-05T13:04:23.291Z,20.70
2022-10-05T13:07:07.921Z,20.70
2022-10-05T13:09:41.379Z,20.80
2022-10-05T13:12:16.156Z,20.80
2022-10-05T13:14:55.385Z,20.70
2022-10-05T13:17:29.840Z,20.80
2022-10-05T13:20:00.125Z,20.90
2022-10-05T13:22:36.894Z,20.80
2022-10-05T13:25:19.284Z,20.90
2022-10-05T13:27:47.476Z,20.80
2022-10-05T13:30:17.332Z,20.60
2022-10-05T13:32:46.097Z,20.70
2022-10-05T13:35:43.183Z,21.00
2022-10-05T13:38:27.315Z,20.80
2022-10-05T13:41:03.383Z,21.10
2022-10-05T13:43:39.304Z,21.00
2022-10-05T13:46:12.906Z,21.30
2022-10-05T13:49:00.962Z,21.10
2022-10-05T13:51:28.512Z,21.00
2022-10-05T13:54:02.775Z,21.50
2022-10-05T13:56:32.168Z,21.60
2022-10-05T13:59:11.938Z,21.80
2022-10-05T14:01:43.212Z,21.60
2022-10-05T14:04:17.873Z,21.70
2022-10-05T14:06:41.443Z,21.80
2022-10-05T14:09:06.080Z,21.80
2022-10-05T14:11:35.227Z,21.80
2022-10-05T14:14:05.741Z,21.80
2022-10-05T14:16:29.694Z,21.80
2022-10-05T14:18:59.812Z,21.80
2022-10-05T14:21:26.506Z,21.60
2022-10-05T14:23:49.779Z,21.50
2022-10-05T14:26:32.667Z,21.30
2022-10-05T14:29:02.800Z,21.60
2022-10-05T14:31:33.695Z,21.60
2022-10-05T14:33:57.175Z,21.60
2022-10-05T14:36:39.152Z,21.40
2022-10-05T14:39:05.178Z,21.40
2022-10-05T14:41:36.254Z,21.30
2022-10-05T14:44:06.038Z,21.20
2022-10-05T14:46:32.637Z,21.70
2022-10-05T14:49:15.696Z,21.70
2022-10-05T14:51:39.257Z,21.90
2022-10-05T14:54:21.196Z,21.80
2022-10-05T14:56:49.504Z,21.70
2022-10-05T14:59:53.922Z,21.70
2022-10-05T15:02:42.298Z,21.60
2022-10-05T15:05:17.596Z,21.50
2022-10-05T15:07:44.858Z,21.50
2022-10-05T15:10:29.401Z,21.40
2022-10-05T15:12:58.247Z,21.20
2022-10-05T15:15:29.328Z,21.30
2022-10-05T15:17:59.297Z,21.20
2022-10-05T15:20:30.534Z,21.20
2022-10-05T15:23:03.390Z,21.20
2022-10-05T15:25:33.407Z,21.10
2022-10-05T15:28:12.939Z,21.10
2022-10-05T15:30:42.093Z,21.10
2022-10-05T15:33:15.913Z,21.20
2022-10-05T15:35:55.243Z,21.40
2022-10-05T15:38:25.453Z,21.40
2022-10-05T15:40:59.586Z,21.30
2022-10-05T15:43:25.034Z,21.30
2022-10-05T15:45:58.246Z,21.20
2022-10-05T15:48:29.724Z,21.20
2022-10-05T15:51:01.642Z,21.10
2022-10-05T15:53:34.043Z,21.10
2022-10-05T15:56:01.174Z,21.00
2022-10-05T15:58:45.499Z,21.00
2022-10-05T16:01:13.209Z,20.90
2022-10-05T16:03:47.969Z,20.70
2022-10-05T16:06:38.433Z,20.60
2022-10-05T16:09:32.091Z,20.50
2022-10-05T16:12:15.441Z,20.50
2022-10-05T16:14:56.628Z,20.40
2022-10-05T16:17:36.539Z,20.20
2022-10-05T16:20:16.430Z,20.30
2022-10-05T16:22:47.322Z,20.10
2022-10-05T16:25:23.380Z,20.00
2022-10-05T16:28:05.931Z,20.10
2022-10-05T16:30:41.024Z,20.10
2022-10-05T16:33:15.434Z,20.00
2022-10-05T16:35:46.948Z,20.00
2022-10-05T16:38:25.171Z,19.80
2022-10-05T16:41:02.230Z,19.50
2022-10-05T16:43:44.939Z,19.30
2022-10-05T16:46:21.905Z,19.10
2022-10-05T16:48:55.102Z,19.00
2022-10-05T16:51:29.753Z,19.00
2022-10-05T16:54:06.352Z,18.90
2022-10-05T16:56:38.970Z,18.80
2022-10-05T16:59:26.095Z,18.60
2022-10-05T17:02:03.608Z,18.50
2022-10-05T17:04:41.829Z,18.50
2022-10-05T17:07:28.728Z,18.50
2022-10-05T17:10:35.835Z,18.40
2022-10-05T17:13:07.273Z,18.40
2022-10-05T17:15:42.581Z,18.30
2022-10-05T17:18:54.281Z,18.30
2022-10-05T17:21:24.588Z,18.30
2022-10-05T17:23:55.783Z,18.30
2022-10-05T17:26:40.946Z,18.30
2022-10-05T17:29:15.553Z,18.30
2022-10-05T17:32:11.160Z,18.30
2022-10-05T17:34:39.407Z,18.20
2022-10-05T17:37:20.273Z,18.20
2022-10-05T17:39:50.514Z,18.30
2022-10-05T17:42:59.284Z,18.30
2022-10-05T17:46:01.537Z,18.30
2022-10-05T17:49:13.757Z,18.20
2022-10-05T17:52:35.499Z,18.20
2022-10-05T17:55:42.828Z,18.30
2022-10-05T17:59:00.723Z,18.30
2022-10-05T18:01:30.315Z,18.30
2022-10-05T18:03:53.920Z,18.30
2022-10-05T18:06:35.390Z,18.30
2022-10-05T18:09:32.942Z,18.20
2022-10-05T18:12:47.427Z,18.20
2022-10-05T18:15:44.908Z,18.20
2022-10-05T18:18:59.787Z,18.20
2022-10-05T18:21:37.736Z,18.20
2022-10-05T18:24:23.453Z,18.10
2022-10-05T18:26:59.609Z,18.10
2022-10-05T18:30:12.935Z,18.20
2022-10-05T18:33:29.893Z,18.10
2022-10-05T18:36:08.808Z,18.20
2022-10-05T18:38:44.438Z,18.10
2022-10-05T18:41:22.539Z,18.10
2022-10-05T18:44:00.752Z,18.20
2022-10-05T18:46:36.744Z,18.20
2022-10-05T18:49:16.260Z,18.10
2022-10-05T18:51:51.983Z,18.10
2022-10-05T18:54:35.074Z,18.50
2022-10-05T18:57:02.368Z,18.50
2022-10-05T18:59:43.327Z,18.50
2022-10-05T19:02:20.907Z,18.40
2022-10-05T19:05:03.333Z,18.40
2022-10-05T19:07:40.956Z,18.50
2022-10-05T19:10:18.632Z,18.50
2022-10-05T19:13:04.947Z,18.30
2022-10-05T19:15:36.988Z,18.30
2022-10-05T19:18:35.316Z,18.50
2022-10-05T19:21:11.392Z,18.40
2022-10-05T19:24:04.443Z,18.50
2022-10-05T19:27:00.728Z,18.40
2022-10-05T19:29:46.424Z,18.50
2022-10-05T19:32:19.664Z,18.50
2022-10-05T19:34:58.736Z,18.40
2022-10-05T19:37:30.920Z,18.40
2022-10-05T19:39:59.039Z,18.20
2022-10-05T19:42:50.394Z,18.20
2022-10-05T19:45:22.604Z,18.40
2022-10-05T19:48:03.767Z,18.30
2022-10-05T19:50:30.578Z,18.40
2022-10-05T19:53:04.137Z,18.30
2022-10-05T19:55:36.067Z,18.50
2022-10-05T19:58:01.223Z,18.40
2022-10-05T20:00:31.229Z,18.40
2022-10-05T20:03:12.901Z,18.50
2022-10-05T20:05:36.484Z,18.30
2022-10-05T20:08:01.067Z,18.30
2022-10-05T20:10:29.252Z,18.40
2022-10-05T20:12:56.007Z,18.50
2022-10-05T20:15:39.682Z,18.40
2022-10-05T20:18:56.801Z,18.40
2022-10-05T20:21:48.015Z,18.50
2022-10-05T20:24:13.496Z,18.20
2022-10-05T20:27:04.250Z,18.20
2022-10-05T20:29:27.719Z,18.20
2022-10-05T20:31:51.097Z,18.50
2022-10-05T20:34:15.755Z,18.60
2022-10-05T20:36:43.110Z,18.70
2022-10-05T20:39:06.402Z,18.60
2022-10-05T20:41:29.622Z,18.60
2022-10-05T20:43:52.931Z,18.70
2022-10-05T20:46:17.671Z,18.60
2022-10-05T20:48:41.033Z,18.80
2022-10-05T20:51:06.072Z,18.70
2022-10-05T20:53:29.422Z,18.80
2022-10-05T20:55:52.717Z,18.70
2022-10-05T20:58:16.296Z,18.60
2022-10-05T21:00:57.238Z,18.60
2022-10-05T21:03:20.603Z,18.70
2022-10-05T21:05:43.821Z,18.80
2022-10-05T21:08:08.558Z,18.80
2022-10-05T21:10:31.778Z,18.80
2022-10-05T21:12:55.022Z,18.80
2022-10-05T21:15:18.505Z,18.70
2022-10-05T21:17:41.726Z,18.60
2022-10-05T21:20:05.676Z,18.60
2022-10-05T21:22:29.019Z,18.50
2022-10-05T21:24:55.209Z,18.50
2022-10-05T21:27:19.251Z,18.10
2022-10-05T21:29:44.068Z,17.80
2022-10-05T21:32:11.238Z,17.60
2022-10-05T21:34:34.496Z,17.40
2022-10-05T21:36:57.883Z,17.20
2022-10-05T21:39:21.147Z,17.00
2022-10-05T21:41:45.818Z,16.90
2022-10-05T21:44:09.172Z,16.80
2022-10-05T21:46:32.474Z,16.60
2022-10-05T21:48:55.961Z,16.60
2022-10-05T21:51:20.593Z,16.60
2022-10-05T21:53:50.192Z,16.60
2022-10-05T21:56:18.374Z,16.50
2022-10-05T21:58:47.636Z,16.50
2022-10-05T22:01:11.043Z,16.50
2022-10-05T22:03:34.339Z,16.60
2022-10-05T22:05:57.799Z,16.60
2022-10-05T22:08:24.933Z,16.60
2022-10-05T22:10:48.426Z,16.50
2022-10-05T22:13:11.717Z,16.50
2022-10-05T22:15:36.335Z,16.50
2022-10-05T22:18:00.677Z,16.50
2022-10-05T22:20:25.072Z,16.60
2022-10-05T22:22:48.487Z,16.50
2022-10-05T22:25:12.129Z,16.60
2022-10-05T22:27:36.308Z,16.60
2022-10-05T22:30:00.054Z,16.50
2022-10-05T22:32:24.716Z,16.50
2022-10-05T22:34:48.024Z,16.50
2022-10-05T22:37:13.408Z,16.50
2022-10-05T22:39:36.613Z,16.50
2022-10-05T22:42:00.061Z,16.50
2022-10-05T22:44:23.338Z,16.50
2022-10-05T22:46:46.565Z,16.50
2022-10-05T22:49:11.344Z,16.30
2022-10-05T22:51:34.597Z,16.00
2022-10-05T22:53:57.832Z,15.60
2022-10-05T22:56:21.738Z,14.80
2022-10-05T22:58:46.738Z,14.50
2022-10-05T23:01:13.648Z,14.00
2022-10-05T23:03:37.167Z,13.80
2022-10-05T23:06:04.603Z,13.80
2022-10-05T23:08:28.356Z,13.80
2022-10-05T23:10:52.531Z,13.60
2022-10-05T23:13:16.630Z,13.50
2022-10-05T23:15:39.845Z,13.60
2022-10-05T23:18:03.081Z,13.50
2022-10-05T23:20:26.387Z,13.50
2022-10-05T23:22:50.971Z,13.40
2022-10-05T23:25:15.031Z,13.40
2022-10-05T23:27:39.157Z,13.50
2022-10-05T23:30:02.401Z,13.50
2022-10-05T23:32:25.662Z,13.50
2022-10-05T23:34:49.089Z,13.50
2022-10-05T23:37:13.506Z,13.50
2022-10-05T23:39:38.072Z,13.50
2022-10-05T23:42:01.336Z,13.50
2022-10-05T23:44:24.609Z,13.50
2022-10-05T23:46:47.848Z,13.50
2022-10-05T23:49:11.092Z,13.50
2022-10-05T23:51:34.408Z,13.50
2022-10-05T23:53:57.655Z,13.60
2022-10-05T23:56:22.307Z,13.60
2022-10-05T23:58:46.124Z,13.70
